Time;durP1;ratioP1;P1;durP2;ratioP2;P2;SDS_P1;SDS_P2;PMS_P1;PMS_P2;Temp;Humidity;BMP_temperature;BMP_pressure;BME280_temperature;BME280_humidity;BME280_pressure;Samples;Min_cycle;Max_cycle;Signal;HPM_P1;HPM_P2
2023/12/06 00:00:40;;;;;;;8.48;7.68;;;15.20;56.40;;;;;;5071972;28;20170;-64
2023/12/06 00:03:06;;;;;;;8.77;7.88;;;15.10;56.30;;;;;;5071906;28;20180;-64
2023/12/06 00:05:31;;;;;;;7.90;7.13;;;15.10;56.40;;;;;;5070790;28;20218;-65
2023/12/06 00:07:57;;;;;;;8.45;7.60;;;15.10;56.50;;;;;;5071680;28;20175;-65
2023/12/06 00:10:22;;;;;;;7.95;7.15;;;15.10;56.30;;;;;;5071388;28;20182;-65
2023/12/06 00:12:48;;;;;;;8.77;7.93;;;15.10;56.40;;;;;;5071139;28;20170;-65
2023/12/06 00:15:15;;;;;;;8.60;7.70;;;15.10;56.50;;;;;;5071605;28;20204;-65
2023/12/06 00:17:40;;;;;;;8.65;7.85;;;15.10;56.50;;;;;;5071579;28;20185;-65
2023/12/06 00:20:06;;;;;;;8.70;7.90;;;15.00;56.60;;;;;;5071041;28;20277;-65
2023/12/06 00:22:32;;;;;;;9.23;8.32;;;15.00;56.40;;;;;;5071247;28;20205;-64
2023/12/06 00:24:57;;;;;;;8.15;7.35;;;15.00;56.50;;;;;;5071097;28;20283;-65
2023/12/06 00:27:23;;;;;;;8.10;7.30;;;15.00;56.40;;;;;;5071528;28;20273;-65
2023/12/06 00:29:48;;;;;;;8.23;7.43;;;15.00;56.50;;;;;;5071655;28;20220;-65
2023/12/06 00:32:14;;;;;;;8.57;7.70;;;15.00;56.50;;;;;;5070651;28;20213;-65
2023/12/06 00:34:40;;;;;;;8.63;7.82;;;15.00;56.60;;;;;;5073444;28;20233;-65
2023/12/06 00:37:05;;;;;;;7.97;7.18;;;15.00;56.60;;;;;;5075145;28;20170;-64
2023/12/06 00:39:31;;;;;;;8.25;7.45;;;15.00;56.60;;;;;;5074478;28;20163;-65
2023/12/06 00:41:56;;;;;;;8.73;7.93;;;14.90;56.40;;;;;;5075417;28;20584;-65
2023/12/06 00:44:22;;;;;;;9.05;8.18;;;14.90;56.20;;;;;;5074643;28;20171;-66
2023/12/06 00:46:47;;;;;;;7.78;6.97;;;14.90;56.40;;;;;;5074344;28;20265;-66
2023/12/06 00:49:13;;;;;;;8.30;7.50;;;14.90;56.50;;;;;;5074929;28;20166;-65
2023/12/06 00:51:39;;;;;;;8.18;7.43;;;14.90;56.60;;;;;;5074846;28;20179;-65
2023/12/06 00:54:05;;;;;;;8.70;7.90;;;14.90;56.50;;;;;;5074078;28;20222;-65
2023/12/06 00:56:30;;;;;;;7.97;7.25;;;14.90;56.50;;;;;;5074735;28;20179;-64
2023/12/06 00:58:56;;;;;;;7.85;7.15;;;14.90;56.60;;;;;;5075036;28;20170;-64
2023/12/06 01:01:22;;;;;;;8.80;7.90;;;14.90;56.60;;;;;;5073916;28;20195;-64
2023/12/06 01:03:47;;;;;;;8.48;7.68;;;14.90;56.60;;;;;;5074814;28;20171;-65
2023/12/06 01:06:13;;;;;;;7.40;6.68;;;14.80;56.50;;;;;;5074654;28;20221;-65
2023/12/06 01:08:38;;;;;;;8.00;7.20;;;14.80;56.50;;;;;;5074251;28;20197;-65
2023/12/06 01:11:04;;;;;;;8.23;7.43;;;14.90;56.60;;;;;;5074843;28;20266;-65
2023/12/06 01:13:29;;;;;;;7.88;7.18;;;14.90;56.50;;;;;;5074311;28;20200;-64
2023/12/06 01:15:55;;;;;;;7.75;7.05;;;14.80;56.40;;;;;;5073868;28;20185;-65
2023/12/06 01:18:21;;;;;;;7.40;6.70;;;14.80;56.40;;;;;;5074269;28;20177;-64
2023/12/06 01:20:46;;;;;;;8.40;7.53;;;14.80;56.50;;;;;;5074351;28;20175;-65
2023/12/06 01:23:12;;;;;;;7.93;7.22;;;14.80;56.50;;;;;;5073892;28;20177;-64
2023/12/06 01:25:37;;;;;;;7.75;7.05;;;14.80;56.50;;;;;;5074019;28;20209;-64
2023/12/06 01:28:03;;;;;;;8.25;7.45;;;14.80;56.50;;;;;;5074269;28;20202;-65
2023/12/06 01:30:28;;;;;;;7.82;7.07;;;14.80;56.50;;;;;;5073592;28;20261;-64
2023/12/06 01:32:54;;;;;;;7.82;7.13;;;14.80;56.50;;;;;;5074271;28;20167;-65
2023/12/06 01:35:19;;;;;;;7.80;7.10;;;14.80;56.50;;;;;;5073154;28;20220;-64
2023/12/06 01:37:45;;;;;;;7.30;6.65;;;14.80;56.40;;;;;;5074387;28;20171;-65
2023/12/06 01:40:11;;;;;;;7.20;6.53;;;14.80;56.40;;;;;;5074067;28;20178;-65
2023/12/06 01:42:36;;;;;;;8.43;7.53;;;14.80;56.50;;;;;;5073167;28;20179;-65
2023/12/06 01:45:02;;;;;;;8.40;7.63;;;14.80;56.50;;;;;;5074068;28;20637;-65
2023/12/06 01:47:29;;;;;;;7.80;7.10;;;14.70;56.40;;;;;;5073669;28;20216;-65
2023/12/06 01:49:54;;;;;;;7.85;7.15;;;14.70;56.50;;;;;;5072050;28;20261;-65
2023/12/06 01:52:21;;;;;;;8.07;7.28;;;14.70;56.40;;;;;;5073656;28;20646;-65
2023/12/06 01:54:47;;;;;;;8.05;7.35;;;14.70;56.30;;;;;;5072754;28;20181;-65
2023/12/06 01:57:12;;;;;;;7.50;6.90;;;14.70;56.40;;;;;;5072076;28;20178;-65
2023/12/06 01:59:38;;;;;;;7.72;7.03;;;14.70;56.50;;;;;;5072173;28;20926;-64
2023/12/06 02:02:04;;;;;;;7.25;6.55;;;14.60;56.40;;;;;;5072555;28;20183;-64
2023/12/06 02:04:29;;;;;;;7.32;6.68;;;14.60;56.40;;;;;;5071395;28;20198;-64
2023/12/06 02:06:55;;;;;;;7.65;6.95;;;14.60;56.40;;;;;;5073700;28;20174;-65
2023/12/06 02:09:21;;;;;;;7.75;6.97;;;14.60;56.40;;;;;;5072170;28;20170;-65
2023/12/06 02:11:47;;;;;;;7.85;7.15;;;14.60;56.40;;;;;;5072844;28;20182;-64
2023/12/06 02:14:13;;;;;;;8.02;7.22;;;14.60;56.40;;;;;;5073323;28;20177;-65
2023/12/06 02:16:38;;;;;;;7.95;7.25;;;14.60;56.30;;;;;;5073353;28;20182;-64
2023/12/06 02:19:04;;;;;;;7.90;7.20;;;14.60;56.40;;;;;;5072587;28;20170;-64
2023/12/06 02:21:30;;;;;;;7.35;6.65;;;14.60;56.40;;;;;;5055147;28;20200;-64
2023/12/06 02:23:55;;;;;;;7.45;6.85;;;14.60;56.30;;;;;;5073382;28;20278;-64
2023/12/06 02:26:21;;;;;;;8.27;7.47;;;14.60;56.40;;;;;;5072206;28;20587;-64
2023/12/06 02:28:53;;;;;;;7.47;6.78;;;14.60;56.40;;;;;;5055157;28;20629;-64
2023/12/06 02:31:19;;;;;;;8.05;7.25;;;14.60;56.40;;;;;;5071574;28;20208;-64
2023/12/06 02:33:44;;;;;;;8.23;7.50;;;14.60;56.30;;;;;;5072299;28;20183;-64
2023/12/06 02:36:10;;;;;;;7.35;6.68;;;14.60;56.40;;;;;;5071972;28;20193;-65
2023/12/06 02:38:36;;;;;;;7.97;7.28;;;14.50;56.40;;;;;;5070714;28;20649;-64
2023/12/06 02:41:01;;;;;;;7.70;7.00;;;14.50;56.40;;;;;;5073045;28;20209;-65
2023/12/06 02:43:27;;;;;;;7.30;6.70;;;14.50;56.40;;;;;;5054710;28;20579;-66
2023/12/06 02:45:52;;;;;;;7.15;6.45;;;14.50;56.40;;;;;;5070771;28;20228;-65
2023/12/06 02:48:18;;;;;;;7.20;6.50;;;14.50;56.40;;;;;;5071251;28;20178;-66
2023/12/06 02:50:43;;;;;;;7.32;6.70;;;14.50;56.40;;;;;;5072958;28;20178;-65
2023/12/06 02:53:09;;;;;;;7.40;6.70;;;14.50;56.40;;;;;;5071785;28;20700;-65
2023/12/06 02:55:34;;;;;;;7.78;7.05;;;14.50;56.40;;;;;;5072460;28;20174;-65
2023/12/06 02:58:00;;;;;;;7.75;7.05;;;14.50;56.40;;;;;;5072251;28;20166;-64
2023/12/06 03:00:25;;;;;;;7.25;6.55;;;14.40;56.30;;;;;;5071563;28;20182;-64
2023/12/06 03:02:51;;;;;;;7.68;6.88;;;14.50;56.40;;;;;;5072442;28;20170;-64
2023/12/06 03:05:16;;;;;;;7.63;6.93;;;14.50;56.50;;;;;;5072317;28;20684;-65
2023/12/06 03:07:42;;;;;;;7.85;7.15;;;14.40;56.50;;;;;;5071968;28;20294;-65
2023/12/06 03:10:08;;;;;;;7.20;6.50;;;14.40;56.30;;;;;;5072387;28;20584;-65
2023/12/06 03:12:33;;;;;;;7.40;6.78;;;14.40;56.40;;;;;;5072214;28;20181;-65
2023/12/06 03:14:59;;;;;;;6.88;6.18;;;14.40;56.40;;;;;;5071736;28;20182;-65
2023/12/06 03:17:24;;;;;;;6.90;6.30;;;14.40;56.40;;;;;;5071962;28;20576;-65
2023/12/06 03:19:50;;;;;;;7.60;6.90;;;14.40;56.50;;;;;;5072280;28;20224;-65
2023/12/06 03:22:15;;;;;;;7.18;6.60;;;14.40;56.50;;;;;;5071438;28;20174;-65
2023/12/06 03:24:41;;;;;;;6.60;6.00;;;14.40;56.50;;;;;;5072298;28;20210;-64
2023/12/06 03:27:07;;;;;;;7.15;6.45;;;14.40;56.60;;;;;;5072306;28;20174;-65
2023/12/06 03:29:32;;;;;;;6.90;6.20;;;14.40;56.60;;;;;;5071242;28;21065;-64
2023/12/06 03:31:58;;;;;;;7.05;6.35;;;14.40;56.60;;;;;;5072097;28;20640;-64
2023/12/06 03:34:23;;;;;;;7.40;6.70;;;14.40;56.60;;;;;;5071949;28;20210;-64
2023/12/06 03:36:49;;;;;;;6.75;6.15;;;14.40;56.60;;;;;;5071549;28;20250;-64
2023/12/06 03:39:16;;;;;;;7.32;6.63;;;14.30;56.60;;;;;;5071831;28;20694;-64
2023/12/06 03:41:42;;;;;;;6.75;6.15;;;14.40;56.60;;;;;;5071971;28;20178;-65
2023/12/06 03:44:08;;;;;;;6.90;6.20;;;14.30;56.60;;;;;;5071678;28;20243;-65
2023/12/06 03:46:33;;;;;;;7.45;6.75;;;14.30;56.60;;;;;;5071652;28;20218;-65
2023/12/06 03:49:00;;;;;;;7.20;6.60;;;14.30;56.60;;;;;;5071210;28;20174;-65
2023/12/06 03:51:26;;;;;;;6.78;6.18;;;14.40;56.70;;;;;;5071647;28;20578;-66
2023/12/06 03:53:51;;;;;;;6.45;5.78;;;14.30;56.70;;;;;;5071742;28;20225;-65
2023/12/06 03:56:17;;;;;;;6.50;5.95;;;14.30;56.60;;;;;;5071072;28;20219;-65
2023/12/06 03:58:42;;;;;;;6.75;6.15;;;14.30;56.70;;;;;;5071994;28;20212;-64
2023/12/06 04:01:08;;;;;;;6.78;6.18;;;14.30;56.60;;;;;;5071826;28;20220;-63
2023/12/06 04:03:34;;;;;;;7.80;6.97;;;14.30;56.60;;;;;;5070846;28;20243;-64
2023/12/06 04:05:59;;;;;;;7.22;6.53;;;14.30;56.60;;;;;;5071930;28;20201;-65
2023/12/06 04:08:25;;;;;;;6.88;6.18;;;14.30;56.60;;;;;;5071593;28;20170;-65
2023/12/06 04:10:50;;;;;;;6.43;5.93;;;14.30;56.70;;;;;;5075123;28;20178;-66
2023/12/06 04:13:16;;;;;;;7.55;6.85;;;14.30;56.70;;;;;;5075435;28;20179;-64
2023/12/06 04:15:41;;;;;;;6.85;6.25;;;14.30;56.70;;;;;;5075681;28;20174;-65
2023/12/06 04:18:07;;;;;;;6.85;6.15;;;14.30;56.60;;;;;;5074904;28;20185;-64
2023/12/06 04:20:32;;;;;;;6.00;5.47;;;14.30;56.60;;;;;;5075488;28;20181;-64
2023/12/06 04:22:58;;;;;;;6.50;5.90;;;14.30;56.60;;;;;;5075707;28;20548;-64
2023/12/06 04:25:23;;;;;;;6.25;5.72;;;14.30;56.70;;;;;;5074527;28;20252;-64
2023/12/06 04:27:49;;;;;;;6.72;6.13;;;14.20;56.70;;;;;;5075422;28;20633;-64
2023/12/06 04:30:14;;;;;;;6.45;5.88;;;14.20;56.70;;;;;;5075148;28;20189;-64
2023/12/06 04:32:40;;;;;;;6.88;6.18;;;14.20;56.70;;;;;;5074868;28;20171;-65
2023/12/06 04:35:06;;;;;;;6.35;5.75;;;14.20;56.70;;;;;;5075473;28;20651;-64
2023/12/06 04:37:31;;;;;;;6.32;5.82;;;14.20;56.70;;;;;;5075144;28;20710;-64
2023/12/06 04:39:57;;;;;;;6.63;5.97;;;14.20;56.70;;;;;;5074452;28;20171;-65
2023/12/06 04:42:22;;;;;;;6.53;5.93;;;14.20;56.70;;;;;;5074853;28;20260;-65
2023/12/06 04:44:48;;;;;;;6.85;6.22;;;14.20;56.70;;;;;;5075029;28;20197;-65
2023/12/06 04:47:13;;;;;;;7.07;6.20;;;14.20;56.80;;;;;;5074203;28;20652;-66
2023/12/06 04:49:39;;;;;;;7.38;6.72;;;14.20;56.80;;;;;;5075278;28;20166;-66
2023/12/06 04:52:05;;;;;;;7.15;6.53;;;14.20;56.80;;;;;;5074316;28;20259;-65
2023/12/06 04:54:31;;;;;;;6.88;6.22;;;14.20;56.90;;;;;;5074700;28;20174;-65
2023/12/06 04:56:56;;;;;;;6.45;5.95;;;14.20;56.80;;;;;;5074998;28;20178;-64
2023/12/06 04:59:22;;;;;;;5.60;5.10;;;14.20;56.90;;;;;;5073909;28;20171;-64
2023/12/06 05:01:47;;;;;;;6.95;6.35;;;14.20;56.90;;;;;;5075093;28;20295;-64
2023/12/06 05:04:13;;;;;;;6.80;6.20;;;14.20;56.90;;;;;;5074970;28;20265;-65
2023/12/06 05:06:38;;;;;;;7.28;6.63;;;14.10;56.90;;;;;;5074183;28;20214;-65
2023/12/06 05:09:10;;;;;;;6.57;5.97;;;14.10;56.90;;;;;;5074673;28;20178;-65
2023/12/06 05:11:35;;;;;;;6.47;5.88;;;14.10;56.90;;;;;;5074302;28;20541;-65
2023/12/06 05:14:02;;;;;;;6.00;5.50;;;14.10;56.90;;;;;;5073758;28;20166;-65
2023/12/06 05:16:28;;;;;;;5.90;5.40;;;14.10;56.90;;;;;;5074506;28;20185;-65
2023/12/06 05:18:53;;;;;;;6.13;5.63;;;14.10;57.00;;;;;;5074456;28;20183;-65
2023/12/06 05:21:19;;;;;;;6.82;6.22;;;14.10;57.00;;;;;;5073338;28;20171;-65
2023/12/06 05:23:44;;;;;;;6.45;5.88;;;14.10;57.00;;;;;;5074516;28;20182;-64
2023/12/06 05:26:10;;;;;;;6.20;5.68;;;14.10;57.00;;;;;;5074381;28;20709;-64
2023/12/06 05:28:35;;;;;;;6.50;5.90;;;14.10;57.00;;;;;;5073338;28;20183;-64
2023/12/06 05:31:01;;;;;;;6.43;5.82;;;14.10;57.00;;;;;;5074244;28;20186;-64
2023/12/06 05:33:27;;;;;;;6.93;6.28;;;14.10;57.00;;;;;;5074203;28;20171;-65
2023/12/06 05:35:53;;;;;;;5.97;5.50;;;14.10;57.10;;;;;;5073735;28;20186;-64
2023/12/06 05:38:18;;;;;;;5.90;5.40;;;14.10;57.60;;;;;;5073918;28;20174;-64
2023/12/06 05:40:44;;;;;;;6.28;5.75;;;14.00;57.00;;;;;;5074685;28;20228;-64
2023/12/06 05:43:09;;;;;;;5.97;5.47;;;14.10;57.10;;;;;;5073431;28;20167;-65
2023/12/06 05:45:35;;;;;;;7.63;5.63;;;14.10;57.10;;;;;;5073671;28;20214;-65
2023/12/06 05:48:00;;;;;;;6.20;5.60;;;14.10;57.20;;;;;;5074000;28;20534;-65
2023/12/06 05:50:26;;;;;;;6.05;5.55;;;14.00;57.10;;;;;;5072926;28;20183;-66
2023/12/06 05:52:52;;;;;;;5.95;5.32;;;14.00;57.10;;;;;;5073880;28;20233;-65
2023/12/06 05:55:18;;;;;;;5.78;5.30;;;14.00;57.10;;;;;;5073643;28;20198;-64
2023/12/06 05:57:43;;;;;;;6.03;5.53;;;14.00;57.10;;;;;;5072964;28;20656;-64
2023/12/06 06:00:12;;;;;;;5.47;4.85;;;14.00;57.10;;;;;;5073718;28;20212;-64
2023/12/06 06:02:43;;;;;;;6.13;5.63;;;14.00;57.20;;;;;;5072893;28;20179;-64
2023/12/06 06:05:09;;;;;;;5.50;5.00;;;14.00;57.20;;;;;;5073723;28;20210;-64
2023/12/06 06:07:34;;;;;;;5.70;5.20;;;14.00;57.10;;;;;;5073163;28;20647;-64
2023/12/06 06:10:00;;;;;;;5.20;4.80;;;14.00;57.10;;;;;;5072766;28;20178;-66
2023/12/06 06:12:25;;;;;;;5.50;5.00;;;14.10;57.00;;;;;;5073190;28;20261;-65
2023/12/06 06:14:51;;;;;;;5.50;5.00;;;14.20;57.10;;;;;;5073618;28;20273;-65
2023/12/06 06:17:16;;;;;;;4.47;4.07;;;14.30;57.20;;;;;;5072580;28;20269;-65
2023/12/06 06:19:42;;;;;;;5.03;4.50;;;14.40;57.00;;;;;;5073463;28;20258;-65
2023/12/06 06:22:07;;;;;;;4.47;4.18;;;14.60;56.80;;;;;;5073343;28;20174;-65
2023/12/06 06:24:34;;;;;;;4.88;4.38;;;14.80;56.70;;;;;;5072178;28;20182;-65
2023/12/06 06:26:59;;;;;;;5.32;4.70;;;14.90;56.40;;;;;;5073074;28;20178;-65
2023/12/06 06:29:26;;;;;;;4.13;3.83;;;15.10;56.30;;;;;;5073036;28;20541;-65
2023/12/06 06:31:52;;;;;;;3.90;3.60;;;15.30;56.10;;;;;;5071693;28;20209;-65
2023/12/06 06:34:17;;;;;;;4.20;3.90;;;15.50;55.70;;;;;;5072848;28;20179;-65
2023/12/06 06:36:43;;;;;;;4.07;3.78;;;15.80;55.30;;;;;;5073020;28;20183;-65
2023/12/06 06:39:11;;;;;;;4.10;3.80;;;16.00;54.90;;;;;;5072261;28;20189;-65
2023/12/06 06:41:37;;;;;;;3.80;3.50;;;16.10;54.60;;;;;;5072516;28;20257;-65
2023/12/06 06:44:02;;;;;;;4.13;3.72;;;16.00;54.70;;;;;;5072975;28;20304;-66
2023/12/06 06:46:28;;;;;;;3.67;3.38;;;16.10;54.70;;;;;;5071690;28;20681;-66
2023/12/06 06:48:53;;;;;;;3.65;3.35;;;16.20;54.60;;;;;;5072676;28;20178;-66
2023/12/06 06:51:19;;;;;;;3.90;3.50;;;16.20;54.60;;;;;;5072565;28;20232;-65
2023/12/06 06:53:44;;;;;;;3.30;3.10;;;16.30;54.60;;;;;;5071757;28;20226;-65
2023/12/06 06:56:10;;;;;;;3.92;3.63;;;16.20;54.50;;;;;;5072533;28;20193;-65
2023/12/06 06:58:35;;;;;;;3.63;3.33;;;16.20;54.50;;;;;;5072326;28;20180;-64
2023/12/06 07:01:01;;;;;;;3.40;3.10;;;16.20;55.30;;;;;;5072028;28;20690;-64
2023/12/06 07:03:26;;;;;;;3.47;3.25;;;16.20;54.70;;;;;;5072441;28;20173;-64
2023/12/06 07:05:52;;;;;;;3.90;3.60;;;16.20;54.70;;;;;;5071792;28;20666;-65
2023/12/06 07:08:18;;;;;;;3.22;2.92;;;16.20;54.70;;;;;;5072269;28;20617;-65
2023/12/06 07:10:47;;;;;;;3.92;3.63;;;16.40;54.70;;;;;;5072310;28;20273;-65
2023/12/06 07:13:13;;;;;;;3.60;3.30;;;16.50;54.50;;;;;;5071668;28;20174;-65
2023/12/06 07:15:38;;;;;;;3.50;3.20;;;16.60;54.30;;;;;;5072439;28;20186;-64
2023/12/06 07:18:04;;;;;;;3.65;3.35;;;16.80;54.10;;;;;;5072440;28;20167;-65
2023/12/06 07:20:29;;;;;;;3.75;3.45;;;16.90;53.80;;;;;;5071366;28;20224;-64
2023/12/06 07:22:57;;;;;;;3.60;3.30;;;17.10;53.60;;;;;;5072287;28;20169;-64
2023/12/06 07:25:22;;;;;;;3.13;2.88;;;17.20;53.50;;;;;;5071772;28;20213;-65
2023/12/06 07:27:48;;;;;;;3.30;2.97;;;17.30;53.20;;;;;;5071714;28;20171;-64
2023/12/06 07:30:15;;;;;;;3.33;3.03;;;17.30;53.20;;;;;;5072377;28;20326;-64
2023/12/06 07:32:40;;;;;;;3.10;2.78;;;17.40;53.10;;;;;;5072104;28;20645;-65
2023/12/06 07:35:06;;;;;;;3.60;3.30;;;17.40;53.00;;;;;;5071288;28;20214;-64
2023/12/06 07:37:32;;;;;;;3.30;3.00;;;17.50;53.00;;;;;;5071768;28;20339;-64
2023/12/06 07:39:58;;;;;;;3.28;2.97;;;17.50;53.00;;;;;;5072034;28;20178;-65
2023/12/06 07:42:23;;;;;;;3.75;3.35;;;17.50;53.10;;;;;;5071299;28;20170;-65
2023/12/06 07:44:49;;;;;;;3.00;2.80;;;17.50;53.20;;;;;;5071912;28;20252;-65
2023/12/06 07:47:17;;;;;;;3.03;2.75;;;17.40;53.20;;;;;;5071859;28;20174;-65
2023/12/06 07:49:43;;;;;;;3.47;3.17;;;17.30;53.30;;;;;;5071316;28;20204;-66
2023/12/06 07:52:09;;;;;;;3.30;3.08;;;17.30;53.50;;;;;;5071866;28;20218;-65
2023/12/06 07:54:34;;;;;;;3.13;2.85;;;17.20;53.50;;;;;;5071617;28;20625;-65
2023/12/06 07:57:00;;;;;;;3.03;2.83;;;17.10;53.50;;;;;;5071153;28;20189;-65
2023/12/06 07:59:25;;;;;;;3.20;2.90;;;17.10;53.70;;;;;;5071846;28;20169;-64
2023/12/06 08:01:51;;;;;;;3.38;3.08;;;17.10;53.80;;;;;;5071950;28;20174;-65
2023/12/06 08:04:16;;;;;;;3.63;3.33;;;17.10;53.90;;;;;;5070766;28;20170;-65
2023/12/06 08:06:42;;;;;;;2.95;2.75;;;17.10;53.90;;;;;;5071762;28;20214;-65
2023/12/06 08:09:13;;;;;;;2.97;2.78;;;17.10;53.90;;;;;;5071020;28;20166;-65
2023/12/06 08:11:39;;;;;;;3.40;3.10;;;17.00;54.00;;;;;;5072090;28;20298;-65
2023/12/06 08:14:05;;;;;;;2.83;2.63;;;17.00;54.10;;;;;;5071922;28;20202;-65
2023/12/06 08:16:30;;;;;;;3.20;2.90;;;17.00;54.10;;;;;;5070809;28;20236;-65
2023/12/06 08:18:56;;;;;;;3.22;2.92;;;17.00;54.30;;;;;;5071789;28;20243;-65
2023/12/06 08:21:21;;;;;;;2.92;2.72;;;17.00;54.20;;;;;;5071421;28;20241;-65
2023/12/06 08:23:47;;;;;;;2.72;2.55;;;17.00;54.30;;;;;;5071004;28;20690;-65
2023/12/06 08:26:13;;;;;;;2.78;2.58;;;17.10;54.10;;;;;;5071872;28;20264;-65
2023/12/06 08:28:39;;;;;;;3.13;2.90;;;17.10;54.10;;;;;;5071294;28;20625;-65
2023/12/06 08:31:05;;;;;;;3.45;3.15;;;17.10;54.10;;;;;;5071047;28;20254;-65
2023/12/06 08:33:30;;;;;;;3.45;3.15;;;17.10;54.10;;;;;;5071301;28;20174;-65
2023/12/06 08:35:56;;;;;;;3.10;2.80;;;17.10;54.20;;;;;;5071583;28;20232;-64
2023/12/06 08:38:21;;;;;;;2.58;2.38;;;17.10;54.20;;;;;;5070442;28;20175;-65
2023/12/06 08:40:47;;;;;;;2.75;2.55;;;17.10;54.20;;;;;;5071676;28;20184;-64
2023/12/06 08:43:13;;;;;;;2.90;2.70;;;17.10;54.20;;;;;;5071627;28;20170;-65
2023/12/06 08:45:38;;;;;;;2.67;2.47;;;17.10;54.20;;;;;;5070691;28;20246;-65
2023/12/06 08:48:04;;;;;;;3.20;2.90;;;17.20;54.20;;;;;;5071509;28;20216;-66
2023/12/06 08:50:30;;;;;;;3.25;2.95;;;17.10;54.20;;;;;;5071091;28;20201;-65
2023/12/06 08:52:55;;;;;;;3.00;2.70;;;17.10;54.20;;;;;;5070448;28;20599;-65
2023/12/06 08:55:21;;;;;;;2.80;2.60;;;17.10;54.30;;;;;;5072555;28;20218;-65
2023/12/06 08:57:46;;;;;;;2.65;2.45;;;17.10;54.20;;;;;;5074926;28;20532;-64
2023/12/06 09:00:12;;;;;;;2.90;2.70;;;17.10;54.30;;;;;;5074041;28;20174;-64
2023/12/06 09:02:39;;;;;;;2.97;2.70;;;17.10;54.30;;;;;;5074571;28;20178;-64
2023/12/06 09:05:05;;;;;;;2.90;2.70;;;17.20;54.40;;;;;;5074715;28;20195;-64
2023/12/06 09:07:31;;;;;;;3.03;2.83;;;17.10;54.20;;;;;;5073691;28;20224;-65
2023/12/06 09:09:56;;;;;;;3.00;2.70;;;17.20;54.40;;;;;;5074633;28;20175;-65
2023/12/06 09:12:22;;;;;;;2.83;2.53;;;17.10;54.40;;;;;;5073850;28;20186;-65
2023/12/06 09:14:47;;;;;;;2.40;2.20;;;17.10;54.30;;;;;;5074726;28;20243;-65
2023/12/06 09:17:13;;;;;;;3.50;2.70;;;17.10;54.40;;;;;;5074655;28;20175;-64
2023/12/06 09:19:38;;;;;;;2.88;2.67;;;17.10;54.40;;;;;;5073845;28;20175;-64
2023/12/06 09:22:05;;;;;;;2.78;2.58;;;17.20;54.50;;;;;;5074516;28;20177;-64
2023/12/06 09:24:30;;;;;;;3.00;2.55;;;17.10;54.40;;;;;;5074366;28;20174;-65
2023/12/06 09:26:56;;;;;;;2.63;2.42;;;17.00;54.50;;;;;;5073844;28;20556;-64
2023/12/06 09:29:22;;;;;;;2.80;2.60;;;17.00;54.60;;;;;;5073994;28;20536;-64
2023/12/06 09:31:47;;;;;;;2.70;2.50;;;16.90;54.70;;;;;;5074306;28;20652;-65
2023/12/06 09:34:13;;;;;;;2.70;2.50;;;16.80;54.90;;;;;;5073513;28;20178;-64
2023/12/06 09:36:39;;;;;;;3.30;2.90;;;16.80;54.90;;;;;;5074137;28;20182;-64
2023/12/06 09:39:04;;;;;;;2.97;2.70;;;16.70;55.00;;;;;;5074362;28;20170;-64
2023/12/06 09:41:31;;;;;;;2.70;2.50;;;16.70;55.20;;;;;;5073318;28;20181;-64
2023/12/06 09:43:57;;;;;;;3.05;2.75;;;16.70;55.20;;;;;;5074167;28;20197;-64
2023/12/06 09:46:23;;;;;;;2.78;2.58;;;16.70;55.20;;;;;;5073731;28;20214;-65
2023/12/06 09:48:48;;;;;;;2.85;2.65;;;16.60;55.20;;;;;;5073372;28;20178;-65
2023/12/06 09:51:18;;;;;;;2.92;2.60;;;16.70;55.30;;;;;;5073587;28;20201;-65
2023/12/06 09:53:44;;;;;;;2.75;2.55;;;16.70;55.30;;;;;;5073689;28;20782;-64
2023/12/06 09:56:09;;;;;;;2.67;2.47;;;16.70;55.20;;;;;;5073093;28;20251;-64
2023/12/06 09:58:35;;;;;;;2.92;2.72;;;16.70;55.20;;;;;;5072171;28;20178;-64
2023/12/06 10:01:01;;;;;;;2.85;2.65;;;16.70;55.20;;;;;;5073875;28;20185;-64
2023/12/06 10:03:27;;;;;;;2.78;2.58;;;16.70;55.20;;;;;;5072695;28;20174;-65
2023/12/06 10:05:56;;;;;;;3.00;2.80;;;16.80;55.20;;;;;;5073112;28;20633;-64
2023/12/06 10:08:22;;;;;;;2.58;2.38;;;16.80;55.20;;;;;;5072832;28;20198;-65
2023/12/06 10:10:48;;;;;;;2.67;2.47;;;16.80;55.20;;;;;;5073043;28;20685;-64
2023/12/06 10:13:13;;;;;;;3.08;2.78;;;16.80;55.20;;;;;;5073441;28;20198;-65
2023/12/06 10:15:39;;;;;;;2.55;2.25;;;16.70;55.20;;;;;;5072870;28;20632;-65
2023/12/06 10:18:04;;;;;;;3.00;2.70;;;16.70;55.20;;;;;;5073401;28;20259;-64
2023/12/06 10:20:30;;;;;;;2.50;2.30;;;16.70;55.30;;;;;;5073067;28;20202;-64
2023/12/06 10:22:55;;;;;;;3.05;2.78;;;16.60;55.30;;;;;;5072762;28;20224;-63
2023/12/06 10:25:22;;;;;;;3.00;2.80;;;16.60;55.40;;;;;;5073232;28;20218;-64
2023/12/06 10:27:48;;;;;;;2.92;2.72;;;16.50;55.60;;;;;;5073089;28;20708;-64
2023/12/06 10:30:20;;;;;;;3.10;2.38;;;16.50;55.60;;;;;;5072404;28;20186;-64
2023/12/06 10:32:46;;;;;;;2.70;2.50;;;16.50;55.80;;;;;;5073065;28;20615;-64
2023/12/06 10:35:11;;;;;;;3.33;2.50;;;16.50;55.80;;;;;;5072935;28;20206;-64
2023/12/06 10:37:37;;;;;;;2.95;2.75;;;16.50;55.80;;;;;;5071025;28;20178;-64
2023/12/06 10:40:10;;;;;;;2.60;2.30;;;16.50;55.80;;;;;;5071938;28;20719;-64
2023/12/06 10:42:36;;;;;;;2.72;2.53;;;16.50;55.70;;;;;;5072698;28;20175;-65
2023/12/06 10:45:03;;;;;;;2.55;2.35;;;16.50;55.70;;;;;;5072131;28;20230;-65
2023/12/06 10:47:29;;;;;;;3.28;2.97;;;16.60;55.70;;;;;;5072500;28;20175;-65
2023/12/06 10:49:55;;;;;;;3.97;2.80;;;16.50;55.80;;;;;;5071764;28;20190;-65
2023/12/06 10:52:21;;;;;;;2.65;2.45;;;16.40;55.80;;;;;;5071727;28;20263;-65
2023/12/06 10:54:46;;;;;;;2.97;2.60;;;16.40;55.90;;;;;;5071556;28;20178;-64
2023/12/06 10:57:15;;;;;;;3.33;2.80;;;16.40;56.00;;;;;;5054917;28;20167;-64
2023/12/06 10:59:41;;;;;;;2.83;2.63;;;16.30;56.00;;;;;;5070647;28;20182;-63
2023/12/06 11:02:08;;;;;;;2.90;2.53;;;16.30;56.10;;;;;;5072498;28;20171;-63
2023/12/06 11:04:36;;;;;;;2.80;2.45;;;16.30;56.10;;;;;;5072367;28;20563;-64
2023/12/06 11:07:20;;;;;;;2.90;2.70;;;16.30;56.20;;;;;;5070670;28;20179;-65
2023/12/06 11:10:13;;;;;;;2.55;2.35;;;16.30;56.20;;;;;;5071375;28;20170;-65
2023/12/06 11:12:52;;;;;;;2.55;2.35;;;16.30;56.10;;;;;;5055027;28;20224;-65
2023/12/06 11:15:19;;;;;;;2.65;2.33;;;16.30;56.20;;;;;;5070862;28;20688;-64
2023/12/06 11:17:49;;;;;;;3.10;2.78;;;16.30;56.20;;;;;;5070956;28;20193;-64
2023/12/06 11:20:15;;;;;;;3.03;2.75;;;16.20;56.20;;;;;;5070130;28;20257;-64
2023/12/06 11:22:40;;;;;;;2.90;2.60;;;16.20;56.30;;;;;;5071185;28;20618;-64
2023/12/06 11:25:07;;;;;;;2.72;2.53;;;16.20;56.40;;;;;;5072077;28;20760;-64
2023/12/06 11:27:32;;;;;;;2.55;2.35;;;16.20;56.50;;;;;;5070109;28;20219;-64
2023/12/06 11:29:58;;;;;;;2.65;2.45;;;16.10;56.50;;;;;;5071256;28;20178;-65
2023/12/06 11:32:24;;;;;;;2.95;2.67;;;16.10;56.50;;;;;;5072061;28;20198;-64
2023/12/06 11:34:56;;;;;;;3.45;2.42;;;16.20;56.50;;;;;;5071540;28;20174;-64
2023/12/06 11:37:22;;;;;;;2.42;2.25;;;16.20;56.50;;;;;;5071747;28;20632;-64
2023/12/06 11:40:07;;;;;;;3.17;2.72;;;16.20;56.40;;;;;;5072033;28;20588;-64
2023/12/06 11:42:36;;;;;;;3.00;2.80;;;16.20;56.40;;;;;;5071712;28;20510;-65
2023/12/06 11:45:02;;;;;;;3.40;2.55;;;16.20;56.40;;;;;;5071921;28;20581;-65
2023/12/06 11:47:28;;;;;;;3.05;2.83;;;16.10;56.40;;;;;;5070964;28;20179;-65
2023/12/06 11:49:53;;;;;;;2.70;2.50;;;16.10;56.50;;;;;;5053814;28;20178;-65
2023/12/06 11:52:20;;;;;;;3.08;2.78;;;16.10;56.60;;;;;;5071808;28;20234;-65
2023/12/06 11:54:46;;;;;;;2.40;2.20;;;16.10;56.70;;;;;;5071243;28;20879;-65
2023/12/06 11:57:11;;;;;;;2.75;2.55;;;16.00;56.70;;;;;;5072030;28;20174;-64
2023/12/06 11:59:39;;;;;;;2.95;2.63;;;16.00;57.40;;;;;;5071619;28;20262;-64
2023/12/06 12:02:04;;;;;;;2.80;2.60;;;16.00;56.80;;;;;;5071224;28;20627;-64
2023/12/06 12:04:30;;;;;;;2.95;2.75;;;16.10;56.80;;;;;;5070368;28;20197;-64
2023/12/06 12:07:01;;;;;;;2.80;2.60;;;16.10;56.70;;;;;;5070822;28;20210;-65
2023/12/06 12:09:29;;;;;;;2.80;2.60;;;16.10;56.70;;;;;;5071008;28;20202;-65
2023/12/06 12:11:54;;;;;;;2.75;2.55;;;16.00;56.60;;;;;;5071933;28;20560;-65
2023/12/06 12:14:20;;;;;;;2.67;2.47;;;16.10;56.70;;;;;;5071598;28;20640;-65
2023/12/06 12:16:45;;;;;;;3.08;2.78;;;16.00;56.80;;;;;;5071205;28;20559;-64
2023/12/06 12:19:11;;;;;;;3.78;2.78;;;16.00;56.90;;;;;;5071708;28;20637;-64
2023/12/06 12:21:37;;;;;;;3.13;2.83;;;16.00;57.10;;;;;;5071693;28;20181;-64
2023/12/06 12:24:02;;;;;;;3.08;2.78;;;15.90;57.10;;;;;;5071133;28;20187;-64
2023/12/06 12:26:29;;;;;;;2.67;2.47;;;15.90;57.10;;;;;;5071233;28;20214;-65
2023/12/06 12:28:54;;;;;;;2.88;2.67;;;15.90;57.10;;;;;;5071727;28;20178;-64
2023/12/06 12:31:22;;;;;;;2.88;2.67;;;15.90;57.10;;;;;;5073712;28;20273;-65
2023/12/06 12:33:48;;;;;;;2.90;2.70;;;15.90;57.10;;;;;;5074141;28;20177;-64
2023/12/06 12:36:15;;;;;;;3.13;2.92;;;15.90;57.10;;;;;;5057576;28;20261;-64
2023/12/06 12:38:41;;;;;;;2.83;2.55;;;15.90;57.10;;;;;;5074057;28;20175;-65
2023/12/06 12:41:10;;;;;;;2.63;2.42;;;15.90;57.10;;;;;;5074128;28;20178;-65